Time,TemperatureF,DewpointF,PressureIn,WindDirection,WindDirectionDegrees,WindSpeedMPH,WindSpeedGustMPH,Humidity,HourlyPrecipIn,Conditions,Clouds,dailyrainin,SoftwareType,DateUTC
2013-03-03 14:07:00,41.4,6.4,29.47,NW,318,9.0,18.6,23,0.00,,,-99.99,FreeWX 2.04,2013-03-03 19:07:00,
2013-03-03 14:17:00,40.3,8.2,29.47,NW,318,10.0,18.6,26,0.00,,,-99.99,FreeWX 2.04,2013-03-03 19:17:00,
2013-03-03 14:27:00,41.2,9.0,29.47,NW,321,9.0,17.2,26,0.00,,,-99.99,FreeWX 2.04,2013-03-03 19:27:00,
2013-03-03 14:37:00,41.7,6.6,29.47,NNW,335,9.0,19.9,23,0.00,,,-99.99,FreeWX 2.04,2013-03-03 19:37:00,
2013-03-03 14:47:00,41.7,6.6,29.47,NNW,336,10.0,21.0,23,0.00,,,-99.99,FreeWX 2.04,2013-03-03 19:47:00,
2013-03-03 14:57:00,42.3,9.0,29.47,NNW,334,7.0,14.8,25,0.00,,,-99.99,FreeWX 2.04,2013-03-03 19:57:00,
2013-03-03 15:07:00,42.3,7.2,29.47,NNW,334,8.0,13.9,23,0.00,,,-99.99,FreeWX 2.04,2013-03-03 20:07:00,
2013-03-03 15:18:00,42.6,7.5,29.47,NNW,332,8.0,15.9,23,0.00,,,-99.99,FreeWX 2.04,2013-03-03 20:18:00,
2013-03-03 15:28:00,40.8,5.9,29.47,NNW,329,9.0,15.9,23,0.00,,,-99.99,FreeWX 2.04,2013-03-03 20:28:00,
2013-03-03 15:38:00,46.9,14.7,29.47,NW,323,9.0,18.6,27,0.00,,,-99.99,FreeWX 2.04,2013-03-03 20:38:00,
2013-03-03 15:48:00,48.7,16.3,29.47,NW,326,10.0,16.8,27,0.00,,,-99.99,FreeWX 2.04,2013-03-03 20:48:00,
2013-03-03 15:58:00,47.1,14.9,29.47,NNW,335,9.0,19.5,27,0.00,,,-99.99,FreeWX 2.04,2013-03-03 20:58:00,
2013-03-03 16:08:00,45.9,13.8,29.47,NW,325,9.0,18.6,27,0.00,,,-99.99,FreeWX 2.04,2013-03-03 21:08:00,
2013-03-03 16:18:00,45.1,11.5,29.47,NNW,328,8.0,14.8,25,0.00,,,-99.99,FreeWX 2.04,2013-03-03 21:18:00,
2013-03-03 16:28:00,43.9,10.4,29.47,NW,320,8.0,16.3,25,0.00,,,-99.99,FreeWX 2.04,2013-03-03 21:28:00,
2013-03-03 16:38:00,44.8,12.9,29.47,NW,320,8.0,17.2,27,0.00,,,-99.99,FreeWX 2.04,2013-03-03 21:38:00,
2013-03-03 16:48:00,44.6,12.7,29.47,NNW,330,8.0,14.8,27,0.00,,,-99.99,FreeWX 2.04,2013-03-03 21:48:00,
2013-03-03 16:58:00,43.0,12.2,29.47,NW,324,8.0,15.9,28,0.00,,,-99.99,FreeWX 2.04,2013-03-03 21:58:00,
2013-03-03 17:08:00,43.5,12.6,29.47,NW,324,7.0,13.0,28,0.00,,,-99.99,FreeWX 2.04,2013-03-03 22:08:00,
2013-03-03 17:18:00,42.4,11.7,29.47,NNW,328,8.0,14.8,28,0.00,,,-99.99,FreeWX 2.04,2013-03-03 22:18:00,
2013-03-03 17:28:00,43.2,9.7,29.47,NW,322,7.0,13.9,25,0.00,,,-99.99,FreeWX 2.04,2013-03-03 22:28:00,
2013-03-03 17:38:00,42.8,12.0,29.47,NW,318,7.0,14.8,28,0.00,,,-99.99,FreeWX 2.04,2013-03-03 22:38:00,
2013-03-03 17:48:00,44.1,13.1,29.47,NNW,327,9.0,16.3,28,0.00,,,-99.99,FreeWX 2.04,2013-03-03 22:48:00,
2013-03-03 17:58:00,41.5,10.9,29.50,NW,323,9.0,15.2,28,0.00,,,-99.99,FreeWX 2.04,2013-03-03 22:58:00,
2013-03-03 18:08:00,42.1,11.3,29.50,NW,326,8.0,16.8,28,0.00,,,-99.99,FreeWX 2.04,2013-03-03 23:08:00,
2013-03-03 18:18:00,40.5,8.2,29.50,NW,326,9.0,18.1,26,0.00,,,-99.99,FreeWX 2.04,2013-03-03 23:18:00,
2013-03-03 18:28:00,40.6,10.0,29.50,NNW,333,8.0,15.2,28,0.00,,,-99.99,FreeWX 2.04,2013-03-03 23:28:00,
2013-03-03 18:38:00,42.8,12.0,29.50,NW,324,8.0,13.0,28,0.00,,,-99.99,FreeWX 2.04,2013-03-03 23:38:00,
2013-03-03 18:48:00,43.7,12.7,29.50,NNW,335,9.0,15.4,28,0.00,,,-99.99,FreeWX 2.04,2013-03-03 23:48:00,
2013-03-03 18:58:00,40.1,8.1,29.50,NNW,332,8.0,15.9,26,0.00,,,-99.99,FreeWX 2.04,2013-03-03 23:58:00,
2013-03-03 19:08:00,41.2,10.6,29.50,NNW,328,8.0,13.9,28,0.00,,,-99.99,FreeWX 2.04,2013-03-04 00:08:00,
2013-03-03 19:18:00,42.1,11.3,29.50,NW,325,8.0,15.4,28,0.00,,,-99.99,FreeWX 2.04,2013-03-04 00:18:00,
2013-03-03 19:28:00,41.0,8.8,29.50,NW,325,8.0,14.3,26,0.00,,,-99.99,FreeWX 2.04,2013-03-04 00:28:00,
2013-03-03 19:38:00,41.2,10.6,29.53,NNW,327,8.0,14.3,28,0.00,,,-99.99,FreeWX 2.04,2013-03-04 00:38:00,
2013-03-03 19:48:00,40.6,10.0,29.53,NNW,333,8.0,13.9,28,0.00,,,-99.99,FreeWX 2.04,2013-03-04 00:48:00,
2013-03-03 19:58:00,39.9,9.5,29.53,NNW,330,8.0,13.0,28,0.00,,,-99.99,FreeWX 2.04,2013-03-04 00:58:00,
2013-03-03 20:08:00,39.6,9.1,29.53,NW,320,8.0,17.7,28,0.00,,,-99.99,FreeWX 2.04,2013-03-04 01:08:00,
2013-03-03 20:18:00,40.6,10.0,29.53,NNW,328,6.0,13.4,28,0.00,,,-99.99,FreeWX 2.04,2013-03-04 01:18:00,
2013-03-03 20:28:00,39.2,8.8,29.53,NW,324,6.0,13.0,28,0.00,,,-99.99,FreeWX 2.04,2013-03-04 01:28:00,
2013-03-03 20:38:00,38.1,6.3,29.53,NNW,332,6.0,12.1,26,0.00,,,-99.99,FreeWX 2.04,2013-03-04 01:38:00,
2013-03-03 20:48:00,39.6,10.0,29.53,NNW,333,6.0,13.0,29,0.00,,,-99.99,FreeWX 2.04,2013-03-04 01:48:00,
2013-03-03 20:59:00,38.5,8.2,29.53,NNW,333,6.0,11.6,28,0.00,,,-99.99,FreeWX 2.04,2013-03-04 01:59:00,
2013-03-03 21:09:00,38.3,8.1,29.53,NNW,335,4.0,8.3,28,0.00,,,-99.99,FreeWX 2.04,2013-03-04 02:09:00,
2013-03-03 21:19:00,38.3,8.8,29.53,NNW,342,5.0,10.5,29,0.00,,,-99.99,FreeWX 2.04,2013-03-04 02:19:00,
2013-03-03 21:29:00,39.2,9.7,29.53,NNW,343,7.0,13.9,29,0.00,,,-99.99,FreeWX 2.04,2013-03-04 02:29:00,
2013-03-03 21:39:00,39.4,9.0,29.53,NNW,337,8.0,15.2,28,0.00,,,-99.99,FreeWX 2.04,2013-03-04 02:39:00,
2013-03-03 21:49:00,39.4,9.0,29.53,NNW,334,9.0,15.9,28,0.00,,,-99.99,FreeWX 2.04,2013-03-04 02:49:00,
2013-03-03 21:59:00,38.5,8.2,29.53,NNW,335,8.0,15.4,28,0.00,,,-99.99,FreeWX 2.04,2013-03-04 02:59:00,
2013-03-03 22:09:00,38.8,9.3,29.53,NNW,327,8.0,14.3,29,0.00,,,-99.99,FreeWX 2.04,2013-03-04 03:09:00,
2013-03-03 22:19:00,36.3,3.0,29.53,NNW,329,8.0,14.8,24,0.00,,,-99.99,FreeWX 2.04,2013-03-04 03:19:00,
2013-03-03 22:29:00,36.9,5.2,29.53,NNW,336,7.0,14.3,26,0.00,,,-99.99,FreeWX 2.04,2013-03-04 03:29:00,
2013-03-03 22:39:00,36.3,5.5,29.56,NNW,338,7.0,13.0,27,0.00,,,-99.99,FreeWX 2.04,2013-03-04 03:39:00,
2013-03-03 22:49:00,37.6,5.9,29.56,NNW,332,8.0,14.8,26,0.00,,,-99.99,FreeWX 2.04,2013-03-04 03:49:00,
2013-03-03 22:59:00,35.4,4.8,29.56,NNW,341,10.0,23.7,27,0.00,,,-99.99,FreeWX 2.04,2013-03-04 03:59:00,
2013-03-03 23:09:00,36.0,5.2,29.56,NNW,344,9.0,17.7,27,0.00,,,-99.99,FreeWX 2.04,2013-03-04 04:09:00,
2013-03-03 23:19:00,36.0,2.7,29.56,NNW,342,10.0,19.5,24,0.00,,,-99.99,FreeWX 2.04,2013-03-04 04:19:00,
2013-03-03 23:29:00,36.3,3.0,29.56,NNW,337,8.0,14.8,24,0.00,,,-99.99,FreeWX 2.04,2013-03-04 04:29:00,
2013-03-03 23:39:00,36.0,5.2,29.56,NNW,343,11.0,20.1,27,0.00,,,-99.99,FreeWX 2.04,2013-03-04 04:39:00,
2013-03-03 23:49:00,39.4,9.9,29.56,NNW,346,9.0,17.7,29,0.00,,,-99.99,FreeWX 2.04,2013-03-04 04:49:00,
2013-03-03 23:59:00,36.7,7.5,29.56,NNW,339,8.0,15.9,29,0.00,,,-99.99,FreeWX 2.04,2013-03-04 04:59:00,